Time;durP1;ratioP1;P1;durP2;ratioP2;P2;SDS_P1;SDS_P2;PMS_P1;PMS_P2;Temp;Humidity;BMP_temperature;BMP_pressure;BME280_temperature;BME280_humidity;BME280_pressure;Samples;Min_cycle;Max_cycle;Signal;HPM_P1;HPM_P2
2023/03/23 00:01:00;;;;;;;8.77;6.68;;;;;;;6.83;61.31;93824.22;4994900;28;20046;-77
2023/03/23 00:03:28;;;;;;;9.68;7.60;;;;;;;6.88;61.48;93819.91;5006468;28;20040;-77
2023/03/23 00:05:59;;;;;;;10.23;8.07;;;;;;;6.86;61.52;93813.06;5000797;28;20083;-76
2023/03/23 00:08:26;;;;;;;11.93;9.07;;;;;;;6.68;62.66;93800.66;5007088;28;20520;-76
2023/03/23 00:10:56;;;;;;;14.02;11.13;;;;;;;6.77;62.62;93808.72;5005026;28;20038;-77
2023/03/23 00:13:24;;;;;;;12.30;9.48;;;;;;;6.72;62.27;93793.72;5006181;28;20536;-77
2023/03/23 00:15:51;;;;;;;12.90;8.50;;;;;;;6.85;62.25;93800.91;5004422;28;20458;-77
2023/03/23 00:18:23;;;;;;;9.32;6.20;;;;;;;6.95;61.50;93812.38;5006679;28;20035;-76
2023/03/23 00:20:50;;;;;;;7.43;5.82;;;;;;;6.77;61.56;93790.22;5004139;28;20417;-77
2023/03/23 00:23:20;;;;;;;6.93;5.63;;;;;;;6.92;61.08;93810.31;5006416;28;20037;-76
2023/03/23 00:25:52;;;;;;;10.05;5.15;;;;;;;6.99;60.66;93813.38;5019380;28;20042;-76
2023/03/23 00:28:26;;;;;;;7.93;5.30;;;;;;;6.83;60.15;93802.28;5004521;28;20034;-77
2023/03/23 00:31:05;;;;;;;7.97;6.10;;;;;;;6.93;60.26;93822.47;5004835;28;20021;-77
2023/03/23 00:33:37;;;;;;;7.40;5.82;;;;;;;6.74;60.96;93819.88;5003417;28;20083;-76
2023/03/23 00:36:03;;;;;;;7.97;4.93;;;;;;;6.64;61.43;93809.47;5002769;28;20103;-77
2023/03/23 00:38:29;;;;;;;8.15;6.43;;;;;;;6.53;61.59;93798.25;4998591;28;20053;-76
2023/03/23 00:40:54;;;;;;;7.10;5.50;;;;;;;6.69;61.69;93826.03;4984857;28;20129;-77
2023/03/23 00:43:20;;;;;;;6.70;5.05;;;;;;;6.67;61.70;93827.38;4987329;28;20397;-77
2023/03/23 00:45:52;;;;;;;5.95;5.35;;;;;;;6.80;61.08;93839.84;4984949;28;20038;-77
2023/03/23 00:48:19;;;;;;;8.85;5.55;;;;;;;6.67;60.83;93820.22;4987739;28;20033;-78
2023/03/23 00:50:44;;;;;;;6.63;5.75;;;;;;;6.58;60.83;93807.97;4994296;28;20072;-76
2023/03/23 00:53:09;;;;;;;10.60;7.00;;;;;;;6.70;61.05;93832.84;5007459;28;20665;-76
2023/03/23 00:55:35;;;;;;;9.05;6.63;;;;;;;6.56;61.51;93813.53;5002169;28;20038;-77
2023/03/23 00:58:00;;;;;;;9.32;7.35;;;;;;;6.70;61.55;93840.78;5003433;28;20120;-77
2023/03/23 01:00:26;;;;;;;8.88;7.22;;;;;;;6.73;61.90;93842.88;5004592;28;20025;-77
2023/03/23 01:02:54;;;;;;;7.70;6.18;;;;;;;6.71;61.65;93834.44;5003827;28;20149;-77
2023/03/23 01:05:20;;;;;;;10.48;6.20;;;;;;;6.61;61.78;93821.38;5006421;28;20785;-77
2023/03/23 01:07:46;;;;;;;12.30;7.63;;;;;;;6.53;62.37;93814.09;5005815;28;20065;-77
2023/03/23 01:10:15;;;;;;;11.48;8.68;;;;;;;6.52;62.24;93804.59;5005790;28;20080;-77
2023/03/23 01:12:42;;;;;;;15.65;10.13;;;;;;;6.74;62.59;93835.72;5004247;28;20037;-77
2023/03/23 01:15:08;;;;;;;13.57;10.25;;;;;;;6.71;62.62;93826.50;5005054;28;20025;-77
2023/03/23 01:17:34;;;;;;;16.63;10.73;;;;;;;6.89;62.65;93843.44;5008062;28;20550;-76
2023/03/23 01:19:59;;;;;;;11.63;9.60;;;;;;;6.69;62.65;93802.25;5005564;28;20034;-76
2023/03/23 01:22:25;;;;;;;13.00;9.95;;;;;;;6.75;62.63;93809.00;5006614;28;20042;-77
2023/03/23 01:24:50;;;;;;;11.50;9.20;;;;;;;7.03;62.84;93843.47;5007501;28;20025;-77
2023/03/23 01:27:16;;;;;;;10.93;9.02;;;;;;;7.02;62.44;93837.38;5009665;28;20108;-77
2023/03/23 01:29:41;;;;;;;13.27;8.75;;;;;;;7.02;62.42;93831.31;5006605;28;20069;-76
2023/03/23 01:32:06;;;;;;;12.90;8.40;;;;;;;6.95;62.33;93822.94;5010172;28;20038;-77
2023/03/23 01:34:32;;;;;;;20.63;13.60;;;;;;;6.83;62.55;93805.72;5006164;28;20562;-77
2023/03/23 01:36:57;;;;;;;19.40;14.35;;;;;;;7.04;62.33;93827.31;5007001;28;20037;-77
2023/03/23 01:39:23;;;;;;;17.42;12.13;;;;;;;7.03;62.87;93831.03;5006468;28;20444;-77
2023/03/23 01:41:48;;;;;;;14.60;11.70;;;;;;;7.10;62.73;93833.28;5009981;28;20125;-76
2023/03/23 01:44:16;;;;;;;13.05;10.38;;;;;;;7.09;63.21;93834.38;5007131;28;20141;-76
2023/03/23 01:46:43;;;;;;;16.30;11.25;;;;;;;6.90;63.01;93796.63;5009398;28;20049;-76
2023/03/23 01:49:16;;;;;;;11.23;9.32;;;;;;;7.15;62.75;93827.91;5005515;28;20033;-77
2023/03/23 01:51:50;;;;;;;13.60;9.68;;;;;;;7.04;62.90;93802.72;5006711;28;20029;-76
2023/03/23 01:54:19;;;;;;;11.70;8.68;;;;;;;7.14;62.63;93813.13;5006696;28;20428;-76
2023/03/23 01:56:53;;;;;;;11.80;8.57;;;;;;;7.15;62.61;93804.88;5005962;28;20034;-76
2023/03/23 01:59:20;;;;;;;11.40;9.00;;;;;;;6.95;62.81;93794.66;5008633;28;20034;-77
2023/03/23 02:01:46;;;;;;;13.75;11.57;;;;;;;7.06;63.43;93811.13;5003638;28;20099;-77
2023/03/23 02:04:14;;;;;;;14.45;10.32;;;;;;;6.98;64.47;93807.31;5009440;28;20030;-77
2023/03/23 02:06:40;;;;;;;14.63;10.82;;;;;;;6.80;65.31;93803.63;5006410;28;20029;-77
2023/03/23 02:09:06;;;;;;;14.50;11.82;;;;;;;6.91;64.78;93814.81;5006894;28;20119;-77
2023/03/23 02:11:32;;;;;;;12.07;10.48;;;;;;;6.98;64.55;93814.47;5007828;28;20475;-76
2023/03/23 02:13:58;;;;;;;13.15;10.30;;;;;;;6.84;64.56;93809.94;5006642;28;20034;-77
2023/03/23 02:16:23;;;;;;;15.10;9.82;;;;;;;6.75;65.31;93816.91;5009062;28;20034;-77
2023/03/23 02:19:16;;;;;;;13.25;10.48;;;;;;;6.80;65.15;93824.78;5005651;28;20099;-77
2023/03/23 02:21:47;;;;;;;16.05;11.75;;;;;;;6.81;65.74;93817.63;5005303;28;20037;-76
2023/03/23 02:24:30;;;;;;;14.95;9.85;;;;;;;6.89;65.50;93824.91;5006809;28;20030;-77
2023/03/23 02:27:01;;;;;;;14.02;10.52;;;;;;;7.04;64.90;93823.88;5008045;28;20071;-77
2023/03/23 02:29:52;;;;;;;12.77;9.40;;;;;;;7.01;64.87;93825.22;5007564;28;20521;-76
2023/03/23 02:32:25;;;;;;;16.13;10.32;;;;;;;7.00;65.13;93828.16;4999193;28;20125;-77
2023/03/23 02:34:56;;;;;;;13.65;9.63;;;;;;;6.98;65.57;93825.81;4986432;28;20158;-77
2023/03/23 02:37:32;;;;;;;12.70;9.32;;;;;;;7.04;65.38;93819.38;4986429;28;20061;-77
2023/03/23 02:40:12;;;;;;;16.92;10.60;;;;;;;6.86;65.24;93797.19;4988595;28;20038;-78
2023/03/23 02:42:41;;;;;;;13.02;9.98;;;;;;;7.04;64.83;93818.59;4986063;28;20030;-77
2023/03/23 02:45:10;;;;;;;15.27;10.60;;;;;;;7.02;64.72;93810.16;4988757;28;20715;-76
2023/03/23 02:47:38;;;;;;;12.70;10.10;;;;;;;7.00;64.94;93822.88;4985597;28;20042;-77
2023/03/23 02:50:07;;;;;;;12.30;9.60;;;;;;;7.06;64.54;93821.72;4988193;28;20505;-76
2023/03/23 02:52:36;;;;;;;13.23;9.10;;;;;;;7.11;64.26;93819.78;4988288;28;20814;-76
2023/03/23 02:55:02;;;;;;;12.10;9.30;;;;;;;7.06;64.27;93821.72;4992736;28;20044;-76
2023/03/23 02:57:28;;;;;;;12.23;9.40;;;;;;;7.02;64.14;93820.72;4992073;28;20037;-76
2023/03/23 02:59:54;;;;;;;14.40;8.95;;;;;;;7.02;64.04;93829.44;5006260;28;20034;-76
2023/03/23 03:02:28;;;;;;;11.75;9.40;;;;;;;7.11;63.45;93833.00;5004072;28;20183;-77
2023/03/23 03:05:06;;;;;;;11.77;8.90;;;;;;;7.03;63.38;93824.94;5007483;28;20140;-78
2023/03/23 03:07:40;;;;;;;13.75;9.20;;;;;;;7.15;63.34;93835.84;5008985;28;20271;-77
2023/03/23 03:10:30;;;;;;;11.15;8.73;;;;;;;7.00;62.45;93804.34;5014988;28;20507;-77
2023/03/23 03:13:24;;;;;;;11.23;8.88;;;;;;;7.16;62.92;93850.63;5006510;28;20042;-77
2023/03/23 03:15:55;;;;;;;17.58;12.57;;;;;;;5.92;67.69;93862.41;5003150;28;20217;-76
2023/03/23 03:18:52;;;;;;;17.85;12.38;;;;;;;6.10;66.99;93833.72;5006753;28;20010;-77
2023/03/23 03:21:25;;;;;;;17.20;12.60;;;;;;;6.52;65.05;93854.81;5004746;28;20049;-78
2023/03/23 03:23:52;;;;;;;18.23;13.02;;;;;;;6.65;64.64;93867.28;5006258;28;20087;-77
2023/03/23 03:26:20;;;;;;;20.05;13.70;;;;;;;6.68;63.94;93852.72;5005576;28;20084;-76
2023/03/23 03:28:50;;;;;;;14.68;11.45;;;;;;;6.69;63.70;93859.59;5006627;28;20141;-76
2023/03/23 03:31:20;;;;;;;18.58;13.60;;;;;;;6.63;63.76;93853.59;5006249;28;20033;-77
2023/03/23 03:33:46;;;;;;;20.45;14.50;;;;;;;6.60;63.55;93835.69;5007592;28;20591;-77
2023/03/23 03:36:18;;;;;;;22.33;15.07;;;;;;;6.77;63.48;93869.50;5005055;28;20095;-76
2023/03/23 03:38:46;;;;;;;20.88;15.48;;;;;;;6.69;63.89;93870.97;5004268;28;20038;-77
2023/03/23 03:41:12;;;;;;;25.17;17.05;;;;;;;6.73;62.94;93856.09;5003344;28;20036;-76
2023/03/23 03:43:38;;;;;;;21.73;15.27;;;;;;;6.66;62.59;93837.16;5003720;28;20050;-76
2023/03/23 03:46:03;;;;;;;22.10;15.20;;;;;;;6.76;62.45;93871.38;5006035;28;20067;-77
2023/03/23 03:48:29;;;;;;;21.35;15.75;;;;;;;6.58;62.57;93837.81;5005712;28;20037;-76
2023/03/23 03:50:56;;;;;;;17.30;13.38;;;;;;;6.63;62.47;93844.88;5005713;28;20069;-77
2023/03/23 03:53:23;;;;;;;18.25;13.65;;;;;;;6.78;62.26;93863.94;5005240;28;20047;-77
2023/03/23 03:55:49;;;;;;;18.75;14.20;;;;;;;6.75;61.05;93848.63;5005906;28;20034;-77
2023/03/23 03:58:15;;;;;;;23.38;16.92;;;;;;;6.68;61.95;93864.09;5005520;28;20171;-75
2023/03/23 04:00:41;;;;;;;22.58;16.52;;;;;;;6.50;63.42;93851.69;5004175;28;20108;-77
2023/03/23 04:03:08;;;;;;;23.10;16.38;;;;;;;6.48;62.51;93851.16;5006070;28;20028;-77
2023/03/23 04:05:36;;;;;;;20.08;14.68;;;;;;;6.57;61.43;93854.72;5004766;28;20034;-77
2023/03/23 04:08:04;;;;;;;20.27;14.68;;;;;;;6.46;61.31;93834.81;5007058;28;20050;-77
2023/03/23 04:10:31;;;;;;;20.60;14.40;;;;;;;6.62;60.91;93857.31;5005268;28;20038;-77
2023/03/23 04:12:57;;;;;;;17.00;13.05;;;;;;;6.45;61.20;93838.53;5003081;28;20040;-77
2023/03/23 04:15:23;;;;;;;20.30;13.60;;;;;;;6.48;62.11;93856.44;5007133;28;20021;-76
2023/03/23 04:17:50;;;;;;;16.00;12.55;;;;;;;6.40;61.50;93849.19;5003921;28;20037;-77
2023/03/23 04:20:17;;;;;;;12.63;9.77;;;;;;;6.21;62.02;93822.75;5006407;28;20515;-77
2023/03/23 04:22:48;;;;;;;11.07;8.40;;;;;;;6.37;62.82;93853.16;5004558;28;20056;-77
2023/03/23 04:25:17;;;;;;;10.38;7.90;;;;;;;6.36;63.08;93866.69;5003651;28;20447;-77
2023/03/23 04:27:43;;;;;;;10.95;8.80;;;;;;;6.43;63.07;93867.09;5004354;28;20480;-77
2023/03/23 04:30:10;;;;;;;11.32;8.25;;;;;;;6.38;62.91;93838.09;5004529;28;20468;-76
2023/03/23 04:32:35;;;;;;;12.25;8.80;;;;;;;6.43;62.95;93843.31;5005250;28;20049;-76
2023/03/23 04:35:01;;;;;;;11.82;8.82;;;;;;;6.41;63.44;93842.81;5004686;28;20034;-77
2023/03/23 04:37:28;;;;;;;11.45;8.73;;;;;;;6.51;63.96;93865.66;5003733;28;20121;-77
2023/03/23 04:40:00;;;;;;;9.10;7.40;;;;;;;6.51;63.51;93837.38;5004146;28;20045;-77
2023/03/23 04:42:30;;;;;;;9.50;7.22;;;;;;;6.45;63.49;93830.63;5005688;28;22143;-77
2023/03/23 04:44:57;;;;;;;10.82;7.40;;;;;;;6.64;63.73;93857.81;5003000;28;20037;-77
2023/03/23 04:47:23;;;;;;;9.25;7.85;;;;;;;6.48;64.17;93842.44;5006729;28;20038;-77
2023/03/23 04:49:48;;;;;;;10.32;8.00;;;;;;;6.65;63.86;93859.38;5004862;28;20300;-77
2023/03/23 04:52:14;;;;;;;10.45;8.35;;;;;;;6.48;64.38;93843.25;5014137;28;20849;-76
2023/03/23 04:54:40;;;;;;;11.48;8.23;;;;;;;6.55;64.83;93859.53;5009514;28;20029;-77
2023/03/23 04:57:08;;;;;;;16.90;12.73;;;;;;;5.70;68.02;93870.06;5009233;28;20100;-77
2023/03/23 04:59:33;;;;;;;21.00;14.48;;;;;;;5.72;68.52;93889.06;5008127;28;20037;-76
2023/03/23 05:01:59;;;;;;;19.92;16.35;;;;;;;5.96;67.05;93860.81;5007745;28;20134;-78
2023/03/23 05:04:24;;;;;;;23.83;16.08;;;;;;;6.22;66.25;93876.34;5010173;28;20419;-78
2023/03/23 05:06:52;;;;;;;31.90;21.27;;;;;;;5.96;67.69;93884.56;5009125;28;20032;-77
2023/03/23 05:09:17;;;;;;;32.45;22.42;;;;;;;6.32;66.99;93873.56;5009649;28;20598;-77
2023/03/23 05:11:43;;;;;;;36.08;23.00;;;;;;;6.38;66.45;93875.09;5008921;28;20035;-79
2023/03/23 05:14:08;;;;;;;36.85;22.88;;;;;;;6.49;66.65;93887.09;5006382;28;20053;-78
2023/03/23 05:16:36;;;;;;;37.25;26.92;;;;;;;6.46;66.96;93874.44;5008013;28;20454;-76
2023/03/23 05:19:02;;;;;;;39.45;27.65;;;;;;;6.52;66.94;93869.88;5008579;28;20033;-78
2023/03/23 05:21:28;;;;;;;38.00;27.67;;;;;;;6.56;66.48;93861.09;5007890;28;20470;-77
2023/03/23 05:23:54;;;;;;;39.25;27.52;;;;;;;6.62;66.66;93883.72;5007198;28;20115;-76
2023/03/23 05:26:28;;;;;;;39.08;24.88;;;;;;;5.92;68.41;93849.22;5006110;28;20034;-77
2023/03/23 05:28:55;;;;;;;36.43;27.23;;;;;;;6.12;69.43;93890.44;5007554;28;20156;-78
2023/03/23 05:31:21;;;;;;;37.83;27.88;;;;;;;6.28;68.77;93880.50;5009706;28;20716;-77
2023/03/23 05:33:47;;;;;;;38.63;26.38;;;;;;;6.74;66.99;93909.75;5005735;28;20026;-76
2023/03/23 05:36:15;;;;;;;46.97;27.73;;;;;;;6.57;67.11;93889.09;5008882;28;20029;-77
2023/03/23 05:38:47;;;;;;;45.70;28.35;;;;;;;6.73;67.35;93903.66;5009066;28;20496;-76
2023/03/23 05:41:13;;;;;;;38.92;26.77;;;;;;;6.84;66.81;93902.44;5008477;28;20065;-76
2023/03/23 05:43:39;;;;;;;35.75;25.98;;;;;;;6.88;66.44;93912.44;5009573;28;20053;-77
2023/03/23 05:46:05;;;;;;;38.80;27.88;;;;;;;5.82;70.84;93899.47;5015523;28;20037;-77
2023/03/23 05:48:31;;;;;;;43.10;28.92;;;;;;;6.29;70.12;93919.84;5009182;28;20038;-75
2023/03/23 05:50:56;;;;;;;41.33;28.85;;;;;;;6.48;68.88;93906.66;5006967;28;20589;-77
2023/03/23 05:53:23;;;;;;;42.20;28.58;;;;;;;6.38;69.42;93922.63;5008684;28;20033;-76
2023/03/23 05:55:49;;;;;;;39.05;27.30;;;;;;;6.47;69.52;93920.13;5005549;28;20048;-77
2023/03/23 05:58:14;;;;;;;38.10;27.02;;;;;;;6.86;67.40;93918.78;5016292;28;20077;-78
2023/03/23 06:00:40;;;;;;;35.03;27.10;;;;;;;6.94;66.93;93927.97;5007932;28;20450;-77
2023/03/23 06:03:06;;;;;;;34.33;24.88;;;;;;;6.83;67.39;93913.31;5017506;28;20030;-77
2023/03/23 06:05:32;;;;;;;32.75;24.25;;;;;;;7.01;67.09;93931.00;5008517;28;20066;-77
2023/03/23 06:07:58;;;;;;;33.22;24.00;;;;;;;6.86;67.22;93907.44;5009638;28;20046;-77
2023/03/23 06:10:23;;;;;;;29.48;23.05;;;;;;;7.04;66.87;93930.44;5005722;28;20119;-77
2023/03/23 06:12:50;;;;;;;34.35;25.27;;;;;;;7.12;66.87;93921.06;5006500;28;20030;-76
2023/03/23 06:15:15;;;;;;;35.33;23.27;;;;;;;7.03;66.27;93881.28;5008508;28;20021;-78
2023/03/23 06:17:41;;;;;;;34.95;25.33;;;;;;;7.34;66.55;93921.22;5005550;28;20755;-77
2023/03/23 06:20:09;;;;;;;42.83;26.15;;;;;;;6.59;68.77;93912.59;5011116;28;20033;-76
2023/03/23 06:22:34;;;;;;;34.50;25.65;;;;;;;6.72;69.80;93907.38;5005706;28;20603;-77
2023/03/23 06:25:00;;;;;;;30.33;22.08;;;;;;;7.01;68.03;93922.28;5009940;28;20247;-77
2023/03/23 06:27:25;;;;;;;32.20;21.23;;;;;;;7.04;67.56;93897.94;5006047;28;20060;-78
2023/03/23 06:29:51;;;;;;;37.13;22.25;;;;;;;7.20;67.55;93901.88;5007710;28;20088;-77
2023/03/23 06:32:16;;;;;;;32.25;22.48;;;;;;;7.10;68.56;93936.41;5003950;28;20137;-76
2023/03/23 06:34:44;;;;;;;30.33;20.55;;;;;;;7.44;67.58;93926.34;5007557;28;20051;-77
2023/03/23 06:37:10;;;;;;;28.08;20.15;;;;;;;7.32;67.17;93926.03;5006492;28;20040;-77
2023/03/23 06:39:38;;;;;;;31.98;22.65;;;;;;;7.14;67.04;93914.41;5006138;28;20476;-76
2023/03/23 06:42:03;;;;;;;35.08;23.85;;;;;;;7.08;68.09;93912.94;5003658;28;20053;-78
2023/03/23 06:44:29;;;;;;;33.95;24.08;;;;;;;7.45;66.26;93919.19;5004176;28;20069;-77
2023/03/23 06:46:57;;;;;;;35.17;24.63;;;;;;;6.89;68.28;93935.16;5001602;28;20083;-77
2023/03/23 06:49:23;;;;;;;38.13;25.90;;;;;;;6.82;70.02;93938.94;5002573;28;20046;-77
2023/03/23 06:51:48;;;;;;;38.28;25.75;;;;;;;6.91;68.64;93941.72;5006711;28;20139;-78
2023/03/23 06:54:14;;;;;;;37.78;25.90;;;;;;;6.80;69.58;93943.72;5006070;28;20059;-78
2023/03/23 06:56:39;;;;;;;43.13;28.45;;;;;;;6.50;70.38;93919.59;5008430;28;20518;-77
2023/03/23 06:59:05;;;;;;;41.90;30.42;;;;;;;6.83;70.22;93935.25;5007863;28;20037;-77
2023/03/23 07:01:30;;;;;;;46.42;31.73;;;;;;;6.46;71.92;93932.56;5007063;28;20045;-76
2023/03/23 07:03:56;;;;;;;42.42;30.38;;;;;;;7.20;69.44;93950.28;5008239;28;20046;-76
2023/03/23 07:06:22;;;;;;;45.17;30.80;;;;;;;7.65;68.43;93956.72;5007739;28;20040;-76
2023/03/23 07:08:47;;;;;;;43.92;30.00;;;;;;;6.94;70.72;93950.97;5005408;28;20574;-78
2023/03/23 07:11:13;;;;;;;46.08;30.55;;;;;;;7.19;70.37;93932.06;5004221;28;20033;-77
2023/03/23 07:13:38;;;;;;;47.95;31.08;;;;;;;7.24;71.30;93939.91;5005412;28;20171;-77
2023/03/23 07:16:07;;;;;;;51.50;32.30;;;;;;;6.70;73.82;93951.78;5002061;28;20500;-76
2023/03/23 07:18:33;;;;;;;48.55;31.45;;;;;;;6.64;73.97;93958.25;5008724;28;20022;-77
2023/03/23 07:20:59;;;;;;;46.53;30.48;;;;;;;6.45;74.64;93951.34;5004475;28;20837;-77
2023/03/23 07:23:25;;;;;;;50.25;31.33;;;;;;;6.63;73.76;93956.66;5004837;28;20169;-76
2023/03/23 07:25:51;;;;;;;47.63;30.27;;;;;;;6.81;74.16;93953.22;5003228;28;20273;-76
2023/03/23 07:28:18;;;;;;;50.15;30.50;;;;;;;6.83;72.93;93935.25;5003306;28;21202;-77
2023/03/23 07:30:44;;;;;;;48.88;30.08;;;;;;;7.49;72.27;93947.44;5005607;28;20559;-77
2023/03/23 07:33:10;;;;;;;42.70;29.63;;;;;;;7.90;70.27;93950.22;5006325;28;20034;-77
2023/03/23 07:35:37;;;;;;;47.13;29.25;;;;;;;7.83;69.66;93941.84;5000724;28;20046;-76
2023/03/23 07:38:04;;;;;;;46.55;29.10;;;;;;;7.51;71.22;93955.88;5005548;28;20042;-77
2023/03/23 07:40:33;;;;;;;41.30;26.90;;;;;;;7.39;71.41;93947.59;5004241;28;20316;-76
2023/03/23 07:42:59;;;;;;;50.25;30.67;;;;;;;7.33;71.01;93919.69;5005610;28;20042;-77
2023/03/23 07:45:26;;;;;;;41.72;30.25;;;;;;;8.03;69.13;93935.41;5006127;28;20034;-76
2023/03/23 07:47:52;;;;;;;50.22;30.75;;;;;;;7.89;70.62;93961.88;5004932;28;20034;-76
2023/03/23 07:50:21;;;;;;;44.72;26.17;;;;;;;7.96;69.51;93972.09;5005559;28;20046;-78
2023/03/23 07:52:46;;;;;;;41.83;26.58;;;;;;;8.20;68.61;93967.41;5006245;28;20082;-77
2023/03/23 07:55:17;;;;;;;33.58;25.60;;;;;;;8.57;66.74;93971.72;5006579;28;20179;-75
2023/03/23 07:57:46;;;;;;;36.65;22.85;;;;;;;8.11;65.88;93955.94;5004652;28;20077;-77
2023/03/23 08:00:23;;;;;;;32.55;24.98;;;;;;;7.83;67.86;93972.84;5005012;28;20029;-78
2023/03/23 08:02:52;;;;;;;37.63;27.13;;;;;;;8.12;67.25;93952.19;5005858;28;20293;-77
2023/03/23 08:05:20;;;;;;;35.80;25.73;;;;;;;7.51;67.27;93933.94;4995277;28;20664;-76
2023/03/23 08:07:47;;;;;;;38.20;25.85;;;;;;;7.79;67.51;93971.84;5004850;28;20073;-77
2023/03/23 08:10:14;;;;;;;33.83;25.05;;;;;;;8.19;66.50;93981.72;5006218;28;20186;-77
2023/03/23 08:12:41;;;;;;;31.33;21.45;;;;;;;7.73;66.84;93984.38;5002662;28;20088;-77
2023/03/23 08:15:12;;;;;;;36.50;25.98;;;;;;;7.87;67.67;93973.84;5003493;28;20040;-78
2023/03/23 08:17:38;;;;;;;34.70;25.70;;;;;;;7.66;68.10;93957.50;5012773;28;20404;-77
2023/03/23 08:20:10;;;;;;;40.22;22.95;;;;;;;7.83;67.64;93972.84;5005681;28;20084;-77
2023/03/23 08:22:38;;;;;;;34.70;23.85;;;;;;;8.38;66.91;93963.88;5003656;28;20057;-78
2023/03/23 08:25:05;;;;;;;34.58;23.65;;;;;;;8.01;66.29;93964.06;5006229;28;20518;-77
2023/03/23 08:27:31;;;;;;;37.20;23.60;;;;;;;8.42;67.22;93970.16;5008539;28;20033;-77
2023/03/23 08:29:57;;;;;;;32.00;22.27;;;;;;;8.79;64.75;93979.75;5007994;28;20036;-77
2023/03/23 08:32:23;;;;;;;29.80;22.73;;;;;;;8.81;62.93;93968.81;5007293;28;20159;-79
2023/03/23 08:34:49;;;;;;;28.65;20.05;;;;;;;8.71;61.54;93971.69;5009401;28;20399;-76
2023/03/23 08:37:16;;;;;;;31.02;20.45;;;;;;;9.13;61.44;93971.34;5010526;28;20121;-77
2023/03/23 08:39:42;;;;;;;31.85;19.25;;;;;;;8.65;62.07;93960.44;5007266;28;20029;-78
2023/03/23 08:42:08;;;;;;;21.40;12.93;;;;;;;8.55;57.14;93937.56;5009635;28;20491;-77
2023/03/23 08:44:34;;;;;;;18.30;13.15;;;;;;;8.70;53.89;93962.19;5008915;28;20121;-80
2023/03/23 08:47:00;;;;;;;24.67;16.75;;;;;;;8.65;58.31;93949.03;5008437;28;20049;-80
2023/03/23 08:49:25;;;;;;;17.92;13.65;;;;;;;8.93;56.40;93963.81;5007329;28;20041;-80
2023/03/23 08:51:51;;;;;;;12.05;8.95;;;;;;;9.51;55.20;93968.34;5009920;28;20036;-78
2023/03/23 08:54:16;;;;;;;19.60;11.25;;;;;;;9.48;53.20;93958.34;5009186;28;20169;-78
2023/03/23 08:56:42;;;;;;;16.00;12.75;;;;;;;9.17;53.80;93959.03;5009260;28;20392;-79
2023/03/23 08:59:09;;;;;;;17.25;10.77;;;;;;;9.45;53.13;93971.13;5006639;28;20074;-79
2023/03/23 09:01:34;;;;;;;13.05;9.00;;;;;;;9.47;50.63;93968.19;5008584;28;20029;-77
2023/03/23 09:03:59;;;;;;;10.40;7.78;;;;;;;9.36;50.75;93953.56;5008854;28;20030;-78
2023/03/23 09:06:25;;;;;;;10.48;8.90;;;;;;;9.45;49.48;93955.19;5008972;28;20029;-79
2023/03/23 09:08:51;;;;;;;14.30;10.32;;;;;;;10.04;51.16;93955.84;5008488;28;20045;-79
2023/03/23 09:11:17;;;;;;;11.85;9.63;;;;;;;9.26;50.31;93967.06;5008482;28;20105;-78
2023/03/23 09:13:42;;;;;;;16.45;10.75;;;;;;;9.47;51.19;93972.69;5009840;28;20121;-77
2023/03/23 09:16:08;;;;;;;19.05;11.30;;;;;;;9.45;50.41;93944.56;5015433;28;20038;-77
2023/03/23 09:18:34;;;;;;;16.17;10.95;;;;;;;9.44;51.22;93956.28;5009947;28;20017;-78
2023/03/23 09:21:01;;;;;;;13.65;9.32;;;;;;;9.39;50.78;93956.41;5006770;28;20046;-79
2023/03/23 09:23:27;;;;;;;13.38;10.20;;;;;;;9.78;50.99;93962.91;5010078;28;20049;-76
2023/03/23 09:25:52;;;;;;;14.70;10.95;;;;;;;9.93;50.13;93959.09;4997347;28;20657;-77
2023/03/23 09:28:19;;;;;;;13.65;9.77;;;;;;;9.93;49.60;93959.84;4978397;28;20115;-77
2023/03/23 09:30:45;;;;;;;15.73;10.70;;;;;;;9.54;49.62;93955.25;5002315;28;20500;-77
2023/03/23 09:33:11;;;;;;;14.82;10.88;;;;;;;9.57;51.20;93956.53;5001551;28;20116;-77
2023/03/23 09:35:38;;;;;;;15.60;10.38;;;;;;;9.68;49.97;93952.53;4993328;28;20072;-77
2023/03/23 09:38:05;;;;;;;15.48;10.48;;;;;;;9.90;49.77;93939.22;4987919;28;20549;-76
2023/03/23 09:40:34;;;;;;;13.45;10.77;;;;;;;9.96;47.97;93942.53;4980023;28;20042;-78
2023/03/23 09:43:11;;;;;;;16.67;9.75;;;;;;;10.17;48.73;93949.66;4985138;28;20060;-76
2023/03/23 09:45:55;;;;;;;12.68;9.52;;;;;;;10.45;48.96;93938.84;5000926;28;20567;-77
2023/03/23 09:48:31;;;;;;;19.17;11.63;;;;;;;10.08;48.63;93929.44;4998998;28;20057;-77
2023/03/23 09:51:26;;;;;;;14.25;10.40;;;;;;;9.89;49.74;93949.06;4992904;28;20068;-79
2023/03/23 09:54:03;;;;;;;14.15;9.85;;;;;;;9.82;48.37;93932.00;5005316;28;20512;-78
2023/03/23 09:56:32;;;;;;;17.67;11.50;;;;;;;10.28;51.24;93934.22;5022559;28;20713;-78
2023/03/23 09:59:12;;;;;;;15.52;10.70;;;;;;;10.10;48.27;93933.38;5004808;28;20180;-77
2023/03/23 10:01:57;;;;;;;54.58;14.05;;;;;;;10.24;48.49;93928.75;5006501;28;20038;-78
2023/03/23 10:04:30;;;;;;;;;;;;;;;10.60;48.22;93933.09;5006446;28;20053;-78
2023/03/23 10:07:23;;;;;;;39.10;14.23;;;;;;;10.56;47.48;93934.81;5006307;28;20007;-77
2023/03/23 10:09:55;;;;;;;67.63;15.48;;;;;;;9.86;47.76;93887.78;5017544;28;20045;-76
2023/03/23 10:12:42;;;;;;;25.67;12.25;;;;;;;10.10;48.07;93937.91;5007985;28;20124;-79
2023/03/23 10:15:31;;;;;;;31.33;12.23;;;;;;;10.10;47.64;93937.91;5000883;28;20050;-78
2023/03/23 10:17:59;;;;;;;22.08;10.27;;;;;;;10.61;48.48;93921.38;5002783;28;20520;-77
2023/03/23 10:20:41;;;;;;;26.80;10.68;;;;;;;10.66;48.53;93929.22;5004753;28;20044;-77
2023/03/23 10:23:13;;;;;;;18.90;9.98;;;;;;;10.51;47.51;93922.44;5006572;28;20670;-78
2023/03/23 10:25:43;;;;;;;15.82;9.93;;;;;;;10.70;49.44;93904.34;5002977;28;20045;-78
2023/03/23 10:28:17;;;;;;;16.35;9.45;;;;;;;10.72;45.95;93904.00;5002584;28;20052;-79
2023/03/23 10:30:46;;;;;;;15.77;9.77;;;;;;;10.19;47.05;93910.28;5004194;28;20030;-79
2023/03/23 10:33:27;;;;;;;16.58;10.07;;;;;;;10.42;47.65;93916.31;5004690;28;20033;-77
2023/03/23 10:36:00;;;;;;;13.52;9.98;;;;;;;10.27;48.41;93928.13;5003180;28;20550;-76
2023/03/23 10:38:32;;;;;;;14.15;9.63;;;;;;;10.65;47.72;93911.69;5005480;28;20156;-77
2023/03/23 10:41:05;;;;;;;12.20;9.93;;;;;;;10.58;46.53;93916.66;5007012;28;20092;-77
2023/03/23 10:43:30;;;;;;;13.30;9.40;;;;;;;10.32;47.89;93920.00;5002598;28;20158;-77
2023/03/23 10:46:05;;;;;;;13.90;10.63;;;;;;;10.28;47.56;93929.69;5004283;28;20026;-76
2023/03/23 10:48:38;;;;;;;11.10;9.40;;;;;;;10.45;47.76;93888.31;5004773;28;20037;-75
2023/03/23 10:51:09;;;;;;;13.73;9.38;;;;;;;11.02;46.46;93900.44;5006873;28;20556;-76
2023/03/23 10:53:37;;;;;;;13.10;9.23;;;;;;;11.01;46.65;93904.19;5002797;28;20048;-76
2023/03/23 10:56:05;;;;;;;12.10;9.90;;;;;;;10.81;46.22;93907.47;5004443;28;20088;-76
2023/03/23 10:58:34;;;;;;;12.90;9.35;;;;;;;11.09;46.17;93895.44;4998546;28;20863;-75
2023/03/23 11:01:03;;;;;;;14.07;8.38;;;;;;;10.80;44.95;93908.56;4994036;28;20045;-76
2023/03/23 11:03:48;;;;;;;12.80;8.77;;;;;;;10.81;44.68;93910.13;5004048;28;20144;-76
2023/03/23 11:06:24;;;;;;;11.38;8.25;;;;;;;11.28;46.76;93897.78;5003117;28;20049;-75
2023/03/23 11:09:00;;;;;;;21.23;9.90;;;;;;;11.04;46.34;93902.78;5004067;28;20056;-77
2023/03/23 11:11:28;;;;;;;15.35;9.23;;;;;;;11.13;46.85;93901.69;5003853;28;20087;-75
2023/03/23 11:14:01;;;;;;;16.08;9.10;;;;;;;10.98;45.59;93910.16;4997005;28;20508;-76
2023/03/23 11:16:30;;;;;;;11.70;8.68;;;;;;;10.87;45.38;93903.56;5002822;28;20077;-75
2023/03/23 11:18:58;;;;;;;12.02;9.32;;;;;;;11.12;45.97;93894.00;4998489;28;20446;-75
2023/03/23 11:21:25;;;;;;;12.27;8.80;;;;;;;11.02;44.57;93889.78;4999488;28;20141;-76
2023/03/23 11:23:58;;;;;;;9.90;8.68;;;;;;;10.72;44.50;93872.88;5006231;28;20029;-76
2023/03/23 11:26:30;;;;;;;17.50;9.65;;;;;;;11.20;44.19;93882.56;5004761;28;20390;-77
2023/03/23 11:29:17;;;;;;;12.27;9.02;;;;;;;11.01;44.80;93888.22;5005100;28;20165;-77
2023/03/23 11:31:44;;;;;;;12.65;9.25;;;;;;;10.87;45.71;93871.63;4995921;28;20448;-76
2023/03/23 11:34:26;;;;;;;11.93;8.90;;;;;;;10.83;46.23;93883.22;5000681;28;20037;-78
2023/03/23 11:36:58;;;;;;;16.42;10.30;;;;;;;10.88;45.73;93872.41;5000965;28;21188;-76